Time;durP1;ratioP1;P1;durP2;ratioP2;P2;SDS_P1;SDS_P2;PMS_P1;PMS_P2;Temp;Humidity;BMP_temperature;BMP_pressure;BME280_temperature;BME280_humidity;BME280_pressure;Samples;Min_cycle;Max_cycle;Signal;HPM_P1;HPM_P2
2020/12/12 00:00:44;;;;;;;49.75;34.80;;;;;;;17.30;32.47;93259.59;5102700;28;20055;-53
2020/12/12 00:03:11;;;;;;;47.72;33.97;;;;;;;17.32;32.66;93252.09;5116148;28;20050;-54
2020/12/12 00:05:39;;;;;;;47.90;35.38;;;;;;;17.33;32.71;93253.63;5115968;28;20039;-56
2020/12/12 00:08:06;;;;;;;46.75;34.25;;;;;;;17.22;32.71;93248.94;5098397;28;20063;-58
2020/12/12 00:10:33;;;;;;;47.45;35.10;;;;;;;17.39;32.42;93246.91;5116102;28;20469;-55
2020/12/12 00:13:00;;;;;;;49.30;35.75;;;;;;;17.48;32.37;93244.78;5116019;28;20044;-55
2020/12/12 00:15:27;;;;;;;48.35;35.58;;;;;;;17.33;33.17;93253.63;5116091;28;20043;-57
2020/12/12 00:17:55;;;;;;;50.10;36.63;;;;;;;17.60;32.36;93247.22;5115734;28;20054;-57
2020/12/12 00:20:22;;;;;;;49.70;36.03;;;;;;;17.54;32.45;93238.84;5116019;28;20052;-55
2020/12/12 00:22:49;;;;;;;43.92;33.67;;;;;;;17.53;32.50;93229.41;5115591;28;20050;-54
2020/12/12 00:25:16;;;;;;;47.22;34.80;;;;;;;17.44;32.79;93233.41;5115864;28;20044;-53
2020/12/12 00:27:43;;;;;;;49.90;35.65;;;;;;;17.31;32.83;93234.72;5096523;28;20051;-54
2020/12/12 00:30:10;;;;;;;48.95;34.17;;;;;;;17.60;32.65;93218.16;5095354;28;20052;-57
2020/12/12 00:32:37;;;;;;;45.85;34.25;;;;;;;17.65;32.39;93231.06;5095177;28;20048;-54
2020/12/12 00:35:05;;;;;;;48.97;35.22;;;;;;;17.40;32.88;93225.41;5095189;28;20052;-55
2020/12/12 00:37:32;;;;;;;46.40;35.05;;;;;;;17.51;32.88;93230.88;5095046;28;20056;-53
2020/12/12 00:39:59;;;;;;;51.80;35.85;;;;;;;17.61;32.80;93219.69;5094722;28;20070;-55
2020/12/12 00:42:26;;;;;;;48.42;35.83;;;;;;;17.55;32.88;93216.59;5094840;28;20051;-54
2020/12/12 00:44:54;;;;;;;51.75;38.05;;;;;;;17.69;32.69;93217.91;5110959;28;20055;-55
2020/12/12 00:47:21;;;;;;;50.83;36.35;;;;;;;17.46;33.10;93204.75;5094882;28;20044;-54
2020/12/12 00:49:48;;;;;;;52.90;36.20;;;;;;;17.60;32.83;93210.22;5110934;28;20370;-54
2020/12/12 00:52:15;;;;;;;51.03;35.75;;;;;;;17.43;33.03;93210.72;5110962;28;20443;-53
2020/12/12 00:54:42;;;;;;;46.28;34.95;;;;;;;17.49;32.99;93204.81;5094879;28;20051;-56
2020/12/12 00:57:12;;;;;;;44.55;33.75;;;;;;;17.51;32.91;93207.09;5122726;28;20059;-55
2020/12/12 00:59:39;;;;;;;53.10;37.42;;;;;;;17.45;33.04;93203.25;5109703;28;20051;-57
2020/12/12 01:02:06;;;;;;;59.10;42.63;;;;;;;17.68;32.54;93203.94;5094278;28;20048;-56
2020/12/12 01:04:33;;;;;;;59.22;43.60;;;;;;;17.44;32.99;93201.72;5094256;28;20056;-58
2020/12/12 01:07:00;;;;;;;59.45;41.42;;;;;;;17.50;32.99;93205.56;5093898;28;20044;-54
2020/12/12 01:09:27;;;;;;;56.47;40.67;;;;;;;17.49;32.77;93198.75;5095004;28;20063;-55
2020/12/12 01:11:56;;;;;;;58.42;40.92;;;;;;;17.54;32.68;93196.56;5095023;28;20055;-57
2020/12/12 01:14:23;;;;;;;56.28;39.58;;;;;;;17.68;32.53;93192.59;5094606;28;20049;-57
2020/12/12 01:16:50;;;;;;;52.97;39.45;;;;;;;17.48;32.77;93192.72;5094561;28;20044;-50
2020/12/12 01:19:18;;;;;;;54.70;39.55;;;;;;;17.24;33.24;93193.13;5094634;28;20052;-55
2020/12/12 01:21:46;;;;;;;52.30;37.97;;;;;;;17.61;32.72;93190.59;5095102;28;20044;-55
2020/12/12 01:24:16;;;;;;;54.13;36.95;;;;;;;17.36;33.25;93181.59;5095018;28;20055;-55
2020/12/12 01:26:47;;;;;;;51.30;36.30;;;;;;;17.48;32.92;93176.88;5097765;28;20040;-54
2020/12/12 01:29:14;;;;;;;49.78;35.88;;;;;;;17.53;33.04;93183.72;5115400;28;20054;-53
2020/12/12 01:31:41;;;;;;;50.50;36.22;;;;;;;17.51;32.79;93167.47;5115328;28;20059;-55
2020/12/12 01:34:09;;;;;;;49.17;34.30;;;;;;;17.59;32.79;93177.00;5115115;28;20051;-56
2020/12/12 01:36:36;;;;;;;49.58;35.30;;;;;;;17.56;33.01;93170.53;5114126;28;20036;-53
2020/12/12 01:39:03;;;;;;;47.08;34.42;;;;;;;17.69;32.74;93159.78;5116161;28;20378;-53
2020/12/12 01:41:30;;;;;;;49.60;34.53;;;;;;;17.63;32.70;93159.28;5119063;28;20051;-54
2020/12/12 01:43:57;;;;;;;48.80;34.25;;;;;;;17.69;32.67;93154.47;5118931;28;20051;-55
2020/12/12 01:46:26;;;;;;;45.53;33.67;;;;;;;17.83;32.14;93159.94;5118796;28;20118;-53
2020/12/12 01:48:55;;;;;;;47.15;32.90;;;;;;;17.76;32.66;93158.00;5118844;28;20047;-53
2020/12/12 01:51:26;;;;;;;43.55;32.03;;;;;;;17.63;32.62;93151.38;5118863;28;20047;-57
2020/12/12 01:53:56;;;;;;;45.13;31.70;;;;;;;17.61;32.99;93152.84;5118744;28;20393;-54
2020/12/12 01:56:25;;;;;;;44.28;32.03;;;;;;;17.84;32.59;93154.31;5100021;28;20051;-55
2020/12/12 01:58:53;;;;;;;45.28;32.47;;;;;;;17.82;33.02;93143.34;5118388;28;20051;-56
2020/12/12 02:01:23;;;;;;;44.75;32.30;;;;;;;17.78;32.58;93144.41;5118682;28;20048;-54
2020/12/12 02:03:51;;;;;;;40.83;29.48;;;;;;;17.71;33.26;93136.41;5100536;28;20047;-54
2020/12/12 02:06:22;;;;;;;42.95;30.30;;;;;;;17.91;32.66;93139.63;5100400;28;20070;-55
2020/12/12 02:08:52;;;;;;;44.70;30.67;;;;;;;17.67;33.08;93133.69;5118463;28;20058;-54
2020/12/12 02:11:20;;;;;;;44.15;30.73;;;;;;;17.50;33.50;93128.94;5118531;28;20056;-53
2020/12/12 02:13:48;;;;;;;41.78;29.35;;;;;;;17.81;33.15;93135.75;5118297;28;20051;-52
2020/12/12 02:16:17;;;;;;;41.00;29.02;;;;;;;17.99;32.75;93131.44;5118095;28;20439;-54
2020/12/12 02:18:45;;;;;;;37.13;28.90;;;;;;;17.81;32.90;93120.66;5118228;28;20446;-56
2020/12/12 02:21:12;;;;;;;42.65;28.55;;;;;;;17.72;33.30;93124.72;5118278;28;20046;-54
2020/12/12 02:23:39;;;;;;;37.92;27.55;;;;;;;17.92;32.82;93117.38;5117630;28;20058;-54
2020/12/12 02:26:07;;;;;;;40.85;29.45;;;;;;;17.53;33.70;93115.03;5111634;28;20054;-57
2020/12/12 02:28:53;;;;;;;38.20;28.80;;;;;;;17.67;33.29;93109.13;5118193;28;20047;-53
2020/12/12 02:31:25;;;;;;;38.45;26.50;;;;;;;17.82;33.06;93110.84;5118109;28;20051;-54
2020/12/12 02:33:52;;;;;;;34.88;25.73;;;;;;;17.80;33.15;93105.94;5117814;28;20048;-50
2020/12/12 02:36:19;;;;;;;33.72;24.95;;;;;;;17.79;33.28;93108.94;5117718;28;20066;-53
2020/12/12 02:38:46;;;;;;;33.20;24.92;;;;;;;17.79;33.43;93104.41;5117894;28;20358;-48
2020/12/12 02:41:13;;;;;;;32.20;23.98;;;;;;;17.90;33.28;93106.38;5117964;28;20054;-47
2020/12/12 02:43:40;;;;;;;34.63;24.77;;;;;;;17.81;33.44;93099.50;5117817;28;20050;-49
2020/12/12 02:46:07;;;;;;;26.77;20.50;;;;;;;17.83;33.83;93102.56;5117704;28;20058;-53
2020/12/12 02:48:34;;;;;;;15.35;10.98;;;;;;;18.45;33.08;93100.13;5098222;28;20120;-56
2020/12/12 02:51:01;;;;;;;14.40;11.38;;;;;;;18.64;33.25;93096.53;5058020;28;20044;-53
2020/12/12 02:53:28;;;;;;;9.57;8.30;;;;;;;19.00;32.59;93086.19;5076763;28;20048;-53
2020/12/12 02:55:56;;;;;;;10.30;8.30;;;;;;;18.65;33.30;93092.00;5081732;28;20088;-56
2020/12/12 02:58:24;;;;;;;9.85;8.55;;;;;;;19.06;32.60;93090.78;5098197;28;20044;-54
2020/12/12 03:00:51;;;;;;;17.10;13.00;;;;;;;18.47;33.55;93089.94;5096971;28;20470;-52
2020/12/12 03:03:18;;;;;;;9.82;8.23;;;;;;;18.66;33.16;93093.50;5096998;28;20383;-54
2020/12/12 03:05:45;;;;;;;10.57;8.43;;;;;;;19.36;32.34;93081.84;5097027;28;20054;-54
2020/12/12 03:08:12;;;;;;;11.50;8.57;;;;;;;18.88;32.93;93084.59;5112780;28;20390;-60
2020/12/12 03:10:39;;;;;;;10.38;7.63;;;;;;;18.83;33.06;93081.53;5117416;28;20078;-52
2020/12/12 03:13:06;;;;;;;8.13;6.53;;;;;;;18.76;33.30;93076.97;5117175;28;20059;-56
2020/12/12 03:15:33;;;;;;;9.00;6.22;;;;;;;19.02;32.64;93084.69;5117319;28;20434;-57
2020/12/12 03:18:00;;;;;;;10.70;7.18;;;;;;;18.72;33.26;93076.91;5116870;28;20382;-53
2020/12/12 03:20:27;;;;;;;7.63;6.07;;;;;;;18.59;33.49;93080.19;5117221;28;20052;-54
2020/12/12 03:22:54;;;;;;;6.70;5.65;;;;;;;18.52;33.57;93078.28;5086871;28;20052;-57
2020/12/12 03:25:21;;;;;;;6.80;5.53;;;;;;;18.41;33.91;93072.88;5056391;28;20056;-55
2020/12/12 03:27:48;;;;;;;7.60;5.80;;;;;;;18.60;33.51;93073.78;5083215;28;20052;-57
2020/12/12 03:30:15;;;;;;;5.72;5.13;;;;;;;18.72;33.20;93070.84;5076291;28;20063;-56
2020/12/12 03:32:43;;;;;;;6.35;4.50;;;;;;;18.71;33.17;93064.03;5076038;28;20055;-55
2020/12/12 03:35:10;;;;;;;5.85;4.63;;;;;;;18.95;32.95;93070.63;5076008;28;20070;-55
2020/12/12 03:37:37;;;;;;;4.80;4.30;;;;;;;19.05;32.76;93062.78;5073726;28;20060;-56
2020/12/12 03:40:04;;;;;;;5.40;4.45;;;;;;;19.31;32.39;93063.66;5076056;28;20470;-54
2020/12/12 03:42:32;;;;;;;5.10;3.88;;;;;;;18.97;32.77;93077.06;5075808;28;20052;-56
2020/12/12 03:44:59;;;;;;;5.63;4.43;;;;;;;18.86;33.02;93062.28;5075864;28;20040;-53
2020/12/12 03:47:26;;;;;;;4.70;4.25;;;;;;;18.95;32.56;93052.84;5075644;28;20048;-54
2020/12/12 03:49:53;;;;;;;5.75;4.30;;;;;;;19.08;31.90;93051.44;5075882;28;20044;-55
2020/12/12 03:52:20;;;;;;;6.53;4.03;;;;;;;19.06;31.71;93053.69;5075763;28;20057;-53
2020/12/12 03:54:47;;;;;;;5.45;4.60;;;;;;;19.26;31.33;93048.88;5075755;28;20044;-53
2020/12/12 03:57:14;;;;;;;4.88;4.18;;;;;;;19.02;32.26;93047.63;5084005;28;20059;-55
2020/12/12 03:59:41;;;;;;;3.60;3.17;;;;;;;19.28;31.10;93048.50;5075748;28;20064;-60
2020/12/12 04:02:08;;;;;;;4.05;3.00;;;;;;;19.01;31.31;93040.81;5057535;28;20055;-60
2020/12/12 04:04:35;;;;;;;4.50;2.90;;;;;;;18.68;31.77;93038.31;5075355;28;20048;-54
2020/12/12 04:07:02;;;;;;;2.65;2.30;;;;;;;18.02;32.89;93029.47;5069041;28;20071;-54
2020/12/12 04:09:29;;;;;;;2.50;2.00;;;;;;;18.09;32.62;93029.53;5075584;28;20044;-57
2020/12/12 04:11:56;;;;;;;2.40;1.98;;;;;;;18.80;31.00;93048.63;5075437;28;20059;-55
2020/12/12 04:14:23;;;;;;;2.13;1.45;;;;;;;18.58;31.37;93039.75;5075550;28;20056;-54
2020/12/12 04:16:50;;;;;;;1.77;1.13;;;;;;;18.58;31.05;93034.44;5075228;28;20060;-53
2020/12/12 04:19:17;;;;;;;1.92;1.42;;;;;;;18.58;31.12;93033.69;5075393;28;20049;-54
2020/12/12 04:21:45;;;;;;;1.70;0.93;;;;;;;18.62;31.02;93031.81;5075277;28;20059;-54
2020/12/12 04:24:12;;;;;;;1.67;0.98;;;;;;;18.64;30.90;93040.94;5088951;28;20043;-54
2020/12/12 04:26:39;;;;;;;1.40;1.00;;;;;;;18.66;31.19;93037.94;5105015;28;20051;-57
2020/12/12 04:29:06;;;;;;;1.85;1.20;;;;;;;18.82;31.01;93032.38;5095427;28;20439;-56
2020/12/12 04:31:33;;;;;;;1.48;1.10;;;;;;;18.74;31.03;93027.03;5095430;28;20059;-56
2020/12/12 04:34:00;;;;;;;1.50;1.10;;;;;;;19.00;30.34;93033.22;5095150;28;20446;-53
2020/12/12 04:36:32;;;;;;;1.50;1.10;;;;;;;18.57;31.30;93024.22;5095421;28;20471;-54
2020/12/12 04:39:00;;;;;;;2.65;1.30;;;;;;;19.13;30.49;93025.72;5095307;28;20374;-54
2020/12/12 04:41:28;;;;;;;2.00;1.40;;;;;;;18.63;31.20;93033.38;5094840;28;20493;-59
2020/12/12 04:43:55;;;;;;;1.58;1.27;;;;;;;18.58;31.48;93028.41;5094063;28;20375;-56
2020/12/12 04:46:23;;;;;;;1.85;1.35;;;;;;;18.79;31.09;93015.34;5095330;28;20056;-53
2020/12/12 04:48:50;;;;;;;1.63;1.30;;;;;;;18.47;31.24;93023.78;5077048;28;20439;-55
2020/12/12 04:51:17;;;;;;;1.33;1.00;;;;;;;18.77;30.89;93017.59;5095152;28;20362;-50
2020/12/12 04:53:44;;;;;;;1.80;1.27;;;;;;;18.83;30.92;93013.47;5077284;28;20044;-54
2020/12/12 04:56:22;;;;;;;1.35;0.95;;;;;;;18.65;31.02;93017.88;5102299;28;20044;-55
2020/12/12 04:58:51;;;;;;;1.70;1.20;;;;;;;18.77;30.88;93015.72;5096695;28;20048;-50
2020/12/12 05:01:19;;;;;;;1.77;1.10;;;;;;;18.45;31.20;93014.69;5093990;28;20048;-58
2020/12/12 05:03:47;;;;;;;1.60;1.20;;;;;;;18.40;30.95;93007.84;5094880;28;20043;-58
2020/12/12 05:06:14;;;;;;;2.90;1.10;;;;;;;18.46;31.38;93011.66;5095196;28;20059;-55
2020/12/12 05:08:41;;;;;;;1.63;1.20;;;;;;;18.41;31.34;93009.38;5111906;28;20048;-59
2020/12/12 05:11:08;;;;;;;1.88;1.23;;;;;;;18.75;30.46;93009.25;5114873;28;20358;-55
2020/12/12 05:13:35;;;;;;;1.30;1.00;;;;;;;18.66;30.73;93009.56;5115230;28;20043;-54
2020/12/12 05:16:03;;;;;;;2.05;1.13;;;;;;;18.47;31.08;93001.84;5119671;28;20055;-56
2020/12/12 05:18:30;;;;;;;2.88;1.50;;;;;;;18.40;31.42;93001.81;5119305;28;20050;-58
2020/12/12 05:20:57;;;;;;;2.47;1.92;;;;;;;18.62;30.95;93003.50;5119425;28;20441;-55
2020/12/12 05:23:25;;;;;;;2.42;1.83;;;;;;;18.30;31.56;92991.91;5101135;28;20043;-55
2020/12/12 05:25:57;;;;;;;2.00;1.48;;;;;;;18.46;31.45;93001.09;5119035;28;20559;-56
2020/12/12 05:28:26;;;;;;;1.48;1.20;;;;;;;18.31;31.64;93002.13;5104964;28;20350;-54
2020/12/12 05:30:53;;;;;;;2.15;1.45;;;;;;;18.35;31.35;92989.69;5098796;28;20051;-54
2020/12/12 05:33:25;;;;;;;1.90;1.50;;;;;;;18.37;31.53;92999.91;5098599;28;20058;-50
2020/12/12 05:35:53;;;;;;;1.95;1.27;;;;;;;18.05;31.79;93002.31;5098854;28;20052;-48
2020/12/12 05:38:20;;;;;;;1.40;1.20;;;;;;;17.85;32.33;92999.84;5098497;28;20039;-51
2020/12/12 05:40:53;;;;;;;1.63;1.10;;;;;;;17.43;33.03;92994.88;5086229;28;20087;-48
2020/12/12 05:43:20;;;;;;;1.65;1.50;;;;;;;17.91;32.16;92986.31;5078301;28;20060;-48
2020/12/12 05:45:47;;;;;;;1.45;1.20;;;;;;;18.12;32.16;92991.78;5094337;28;20064;-54
2020/12/12 05:48:14;;;;;;;1.70;1.20;;;;;;;18.06;31.70;92995.88;5090087;28;20056;-54
2020/12/12 05:50:42;;;;;;;4.50;1.33;;;;;;;18.28;31.66;92989.66;5098523;28;20040;-56
2020/12/12 05:53:11;;;;;;;1.95;1.20;;;;;;;18.09;31.74;92989.88;5098271;28;20044;-56
2020/12/12 05:55:39;;;;;;;3.03;1.73;;;;;;;18.41;31.26;92988.22;5100675;28;20056;-54
2020/12/12 05:58:06;;;;;;;1.90;1.48;;;;;;;18.54;30.84;92993.22;5107754;28;20048;-55
2020/12/12 06:00:33;;;;;;;1.67;1.30;;;;;;;18.24;31.54;92993.41;5060295;28;20048;-55
2020/12/12 06:03:30;;;;;;;1.85;1.40;;;;;;;18.07;32.07;92989.47;5077764;28;20056;-53
2020/12/12 06:06:07;;;;;;;1.83;1.40;;;;;;;18.09;31.93;92989.88;5077964;28;20467;-53
2020/12/12 06:08:36;;;;;;;2.75;2.00;;;;;;;18.32;31.71;92995.72;5091779;28;20044;-55
2020/12/12 06:11:14;;;;;;;2.95;2.65;;;;;;;18.28;31.61;92989.66;5098120;28;20052;-54
2020/12/12 06:13:42;;;;;;;3.58;2.50;;;;;;;18.43;31.30;92988.59;5080177;28;20041;-57
2020/12/12 06:16:09;;;;;;;2.70;2.38;;;;;;;18.59;31.30;92977.00;5080176;28;20434;-54
2020/12/12 06:18:55;;;;;;;2.40;1.73;;;;;;;18.42;31.68;92973.84;5097607;28;20054;-54
2020/12/12 06:21:23;;;;;;;3.22;1.90;;;;;;;18.30;31.99;92992.69;5080252;28;20048;-56
2020/12/12 06:23:50;;;;;;;3.03;1.70;;;;;;;18.59;31.19;92982.28;5097803;28;20062;-54
2020/12/12 06:26:28;;;;;;;2.35;1.60;;;;;;;18.54;31.20;92980.00;5105006;28;20062;-53
2020/12/12 06:28:57;;;;;;;3.03;1.80;;;;;;;18.34;31.86;92988.16;5083404;28;20044;-58
2020/12/12 06:31:25;;;;;;;2.85;2.00;;;;;;;18.08;32.08;92980.41;5097869;28;20439;-57
2020/12/12 06:33:53;;;;;;;3.03;2.10;;;;;;;18.10;32.36;92984.22;5097674;28;20044;-57
2020/12/12 06:36:31;;;;;;;2.42;2.00;;;;;;;18.34;31.81;92992.69;5097663;28;20067;-52
2020/12/12 06:39:21;;;;;;;2.38;2.08;;;;;;;18.40;31.61;92981.41;5097136;28;20367;-57
2020/12/12 06:41:51;;;;;;;3.40;2.72;;;;;;;18.42;32.30;92979.16;5097406;28;20497;-53
2020/12/12 06:44:38;;;;;;;2.92;2.35;;;;;;;18.48;31.81;92982.22;5097571;28;20047;-52
2020/12/12 06:47:06;;;;;;;2.58;1.85;;;;;;;18.58;31.52;92986.06;5097106;28;20764;-51
2020/12/12 06:49:34;;;;;;;2.58;2.15;;;;;;;18.30;32.15;92982.09;5097412;28;20340;-56
2020/12/12 06:52:02;;;;;;;2.90;2.22;;;;;;;18.33;32.18;92976.06;5097226;28;20067;-55
2020/12/12 06:54:29;;;;;;;3.58;2.40;;;;;;;18.33;32.76;92976.06;5097322;28;20052;-57
2020/12/12 06:56:56;;;;;;;5.82;4.88;;;;;;;18.36;33.65;92975.34;5110429;28;20059;-56
2020/12/12 06:59:24;;;;;;;7.63;5.82;;;;;;;18.61;32.55;92974.72;5097661;28;20060;-55
2020/12/12 07:02:02;;;;;;;9.35;8.38;;;;;;;18.56;34.18;92972.44;5097007;28;20382;-57
2020/12/12 07:04:33;;;;;;;13.38;11.98;;;;;;;18.48;32.57;92976.94;5097069;28;20051;-55
2020/12/12 07:07:07;;;;;;;13.95;10.93;;;;;;;18.44;32.70;92971.59;5097027;28;20339;-53
2020/12/12 07:09:39;;;;;;;9.57;8.68;;;;;;;18.56;32.41;92977.72;5097051;28;20047;-54
2020/12/12 07:12:07;;;;;;;9.15;7.60;;;;;;;18.43;32.74;92975.38;5096780;28;20443;-53
2020/12/12 07:14:36;;;;;;;7.55;6.78;;;;;;;18.36;33.21;92974.56;5096872;28;20040;-54
2020/12/12 07:17:05;;;;;;;10.63;8.23;;;;;;;18.45;33.08;92973.13;5096762;28;20048;-53
2020/12/12 07:19:32;;;;;;;10.73;8.68;;;;;;;18.54;32.85;92969.41;5096074;28;20063;-56
2020/12/12 07:22:00;;;;;;;15.48;13.30;;;;;;;18.38;33.11;92973.06;5096612;28;20051;-56
2020/12/12 07:24:27;;;;;;;18.85;15.45;;;;;;;18.31;33.53;92966.97;5096762;28;20060;-56
2020/12/12 07:26:55;;;;;;;24.58;18.80;;;;;;;18.48;33.02;92964.47;5109650;28;20054;-54
2020/12/12 07:29:23;;;;;;;24.38;19.05;;;;;;;18.53;33.42;92970.53;5098233;28;20040;-54
2020/12/12 07:31:51;;;;;;;21.63;18.73;;;;;;;18.45;33.60;92973.13;5096408;28;20052;-53
2020/12/12 07:34:22;;;;;;;21.05;17.10;;;;;;;18.26;33.93;92967.34;5096385;28;20332;-53
2020/12/12 07:37:03;;;;;;;17.40;13.88;;;;;;;18.23;33.44;92966.19;5096294;28;20054;-57
2020/12/12 07:39:34;;;;;;;11.90;9.52;;;;;;;17.93;33.81;92966.31;5096166;28;20355;-56
2020/12/12 07:42:02;;;;;;;12.45;10.38;;;;;;;18.13;33.54;92961.56;5096186;28;20056;-53
2020/12/12 07:44:36;;;;;;;11.25;8.00;;;;;;;18.11;33.27;92966.47;5096087;28;20056;-55
2020/12/12 07:47:12;;;;;;;11.80;8.43;;;;;;;18.22;33.36;92964.66;5096178;28;20075;-51
2020/12/12 07:49:39;;;;;;;7.38;5.72;;;;;;;17.12;34.90;92958.31;5089393;28;20064;-54
2020/12/12 07:52:11;;;;;;;7.65;5.80;;;;;;;17.24;35.10;92961.47;5083479;28;20086;-42
2020/12/12 07:54:55;;;;;;;7.57;5.70;;;;;;;16.72;35.80;92962.38;5112696;28;20051;-50
2020/12/12 07:57:22;;;;;;;6.68;5.25;;;;;;;17.16;34.87;92967.78;5114621;28;20062;-49
2020/12/12 07:59:49;;;;;;;8.07;5.10;;;;;;;17.05;35.00;92964.28;5115482;28;20051;-46
2020/12/12 08:02:17;;;;;;;6.65;5.28;;;;;;;16.89;35.01;92964.47;5103083;28;20055;-45
2020/12/12 08:04:44;;;;;;;7.10;5.22;;;;;;;17.01;35.40;92965.38;5107840;28;20059;-46
2020/12/12 08:07:22;;;;;;;12.60;5.30;;;;;;;16.88;35.08;92956.91;5114822;28;20063;-46
2020/12/12 08:09:51;;;;;;;7.18;5.55;;;;;;;16.72;35.20;92957.09;5113103;28;20051;-56
2020/12/12 08:12:30;;;;;;;6.40;5.20;;;;;;;16.97;34.74;92957.41;5112329;28;20055;-47
2020/12/12 08:15:31;;;;;;;7.47;5.90;;;;;;;17.81;33.46;92956.78;5113006;28;20516;-55
2020/12/12 08:18:08;;;;;;;7.40;5.80;;;;;;;18.04;33.19;92963.75;5103558;28;20052;-57
2020/12/12 08:20:35;;;;;;;6.47;5.25;;;;;;;18.02;32.98;92966.00;5112221;28;20051;-45
2020/12/12 08:23:03;;;;;;;7.78;5.20;;;;;;;17.80;33.68;92962.44;5110378;28;20052;-44
2020/12/12 08:25:31;;;;;;;7.55;5.78;;;;;;;17.99;32.75;92966.75;5077559;28;20044;-52
2020/12/12 08:27:58;;;;;;;7.28;5.10;;;;;;;17.82;33.22;92968.88;5076808;28;20062;-49
2020/12/12 08:30:25;;;;;;;10.20;6.18;;;;;;;17.87;33.03;92965.13;5076337;28;20047;-49
2020/12/12 08:32:54;;;;;;;10.23;6.88;;;;;;;17.92;32.74;92969.31;5107978;28;20055;-51
2020/12/12 08:35:26;;;;;;;7.38;6.22;;;;;;;18.13;32.79;92969.50;5115113;28;20481;-46
2020/12/12 08:37:57;;;;;;;10.35;6.68;;;;;;;18.13;32.39;92972.13;5113402;28;20056;-53
2020/12/12 08:40:29;;;;;;;10.32;7.45;;;;;;;18.05;33.12;92973.22;5115069;28;20039;-50
2020/12/12 08:43:06;;;;;;;12.35;8.38;;;;;;;18.13;32.77;92967.59;5115165;28;20481;-45
2020/12/12 08:45:57;;;;;;;12.90;8.80;;;;;;;18.40;32.66;92965.53;5114059;28;20051;-54
2020/12/12 08:48:35;;;;;;;12.43;8.80;;;;;;;18.39;32.62;92964.00;5098218;28;20078;-61
2020/12/12 08:51:07;;;;;;;14.65;8.85;;;;;;;18.33;33.13;92968.13;5114843;28;20059;-50
2020/12/12 08:53:36;;;;;;;12.55;8.48;;;;;;;18.49;32.10;92965.97;5107588;28;20058;-53
2020/12/12 08:56:06;;;;;;;12.27;8.02;;;;;;;18.32;32.29;92957.91;5115465;28;20563;-52
2020/12/12 08:58:42;;;;;;;6.93;4.22;;;;;;;18.05;32.49;92965.28;5115398;28;20365;-50
2020/12/12 09:01:23;;;;;;;7.38;5.00;;;;;;;18.16;31.91;92960.81;5115201;28;20062;-49
2020/12/12 09:04:14;;;;;;;7.50;5.40;;;;;;;18.08;32.34;92960.03;5111959;28;20044;-62
2020/12/12 09:06:41;;;;;;;7.82;5.82;;;;;;;18.30;32.28;92965.47;5114186;28;20043;-54
2020/12/12 09:09:11;;;;;;;7.63;6.30;;;;;;;18.44;32.74;92955.72;5115244;28;20055;-54
2020/12/12 09:11:47;;;;;;;7.28;5.25;;;;;;;18.32;32.76;92955.28;5115336;28;20044;-58
2020/12/12 09:14:15;;;;;;;8.18;6.60;;;;;;;18.31;32.49;92954.50;5115495;28;20047;-57
2020/12/12 09:16:56;;;;;;;6.95;6.07;;;;;;;18.31;32.74;92951.88;5115499;28;20051;-55
2020/12/12 09:19:24;;;;;;;7.35;4.80;;;;;;;18.49;32.65;92944.81;5115009;28;20396;-57
2020/12/12 09:21:52;;;;;;;7.85;5.22;;;;;;;18.32;32.21;92942.81;5115335;28;20050;-57
2020/12/12 09:24:22;;;;;;;5.00;3.83;;;;;;;18.27;32.20;92940.50;5115491;28;20055;-56
2020/12/12 09:26:56;;;;;;;7.05;4.80;;;;;;;18.35;32.47;92933.38;5115350;28;20050;-56
2020/12/12 09:29:24;;;;;;;6.65;4.95;;;;;;;18.31;32.19;92935.25;5108377;28;20055;-55
2020/12/12 09:31:53;;;;;;;5.50;4.60;;;;;;;16.98;35.29;92943.09;5094880;28;20082;-47
2020/12/12 09:34:20;;;;;;;6.50;4.85;;;;;;;17.22;34.72;92934.69;5094849;28;20058;-53
2020/12/12 09:36:51;;;;;;;9.43;7.25;;;;;;;17.52;33.92;92933.84;5094823;28;20052;-56
2020/12/12 09:39:19;;;;;;;7.20;5.25;;;;;;;17.32;34.08;92927.22;5108464;28;20497;-58
2020/12/12 09:41:46;;;;;;;7.50;5.90;;;;;;;17.36;34.52;92925.38;5115066;28;20059;-46
2020/12/12 09:44:13;;;;;;;8.57;6.88;;;;;;;17.31;34.92;92930.97;5115241;28;20473;-45
2020/12/12 09:46:40;;;;;;;15.00;11.35;;;;;;;17.49;34.88;92929.28;5115252;28;20039;-47
2020/12/12 09:49:07;;;;;;;12.32;7.25;;;;;;;17.06;35.17;92928.84;5114824;28;20059;-52
2020/12/12 09:51:34;;;;;;;9.38;6.43;;;;;;;16.97;35.75;92925.72;5109461;28;20051;-53
2020/12/12 09:54:01;;;;;;;12.32;7.13;;;;;;;16.69;35.78;92920.13;5094802;28;20067;-44
2020/12/12 09:56:28;;;;;;;9.30;7.07;;;;;;;16.76;35.61;92928.13;5103982;28;20446;-44
2020/12/12 09:58:55;;;;;;;8.25;6.55;;;;;;;16.94;35.44;92921.94;5114747;28;20126;-55
2020/12/12 10:01:22;;;;;;;5.93;3.92;;;;;;;16.99;34.64;92923.50;5116434;28;20093;-50
2020/12/12 10:03:49;;;;;;;3.95;2.65;;;;;;;17.60;33.37;92927.47;5118698;28;20082;-54
2020/12/12 10:06:17;;;;;;;5.05;3.05;;;;;;;17.88;32.87;92929.63;5114265;28;20048;-53
2020/12/12 10:08:44;;;;;;;5.03;3.22;;;;;;;17.94;32.85;92922.13;5105807;28;20055;-54
2020/12/12 10:11:11;;;;;;;5.78;3.63;;;;;;;18.28;32.41;92926.16;5118457;28;20051;-56
2020/12/12 10:13:38;;;;;;;8.63;5.72;;;;;;;18.40;32.15;92917.16;5118574;28;20051;-57
2020/12/12 10:16:05;;;;;;;8.93;5.85;;;;;;;18.54;31.99;92922.53;5100514;28;20043;-58
2020/12/12 10:18:32;;;;;;;9.75;6.65;;;;;;;18.02;32.77;92918.41;5111961;28;20055;-55
2020/12/12 10:20:59;;;;;;;11.35;7.45;;;;;;;16.78;35.30;92918.72;5102998;28;20051;-50
2020/12/12 10:23:26;;;;;;;11.32;8.38;;;;;;;17.59;33.54;92920.69;5100480;28;20458;-55
2020/12/12 10:25:54;;;;;;;13.10;8.68;;;;;;;18.28;33.43;92915.56;5111488;28;20048;-56
2020/12/12 10:28:21;;;;;;;11.02;7.95;;;;;;;18.53;31.84;92921.00;5114719;27;20043;-53
2020/12/12 10:30:48;;;;;;;13.07;9.93;;;;;;;18.62;32.30;92916.16;5111096;28;20047;-54
2020/12/12 10:33:15;;;;;;;12.85;8.45;;;;;;;18.63;32.31;92919.56;5097435;28;20052;-45
2020/12/12 10:35:42;;;;;;;11.25;8.43;;;;;;;18.56;32.02;92907.03;5108137;28;20051;-52
2020/12/12 10:38:11;;;;;;;7.43;5.22;;;;;;;18.45;31.22;92914.91;5118003;28;20450;-49
2020/12/12 10:40:41;;;;;;;6.90;5.13;;;;;;;18.19;32.32;92909.84;5117822;28;20047;-56
2020/12/12 10:43:09;;;;;;;7.03;5.68;;;;;;;18.08;32.64;92911.66;5115265;28;20055;-52
2020/12/12 10:45:38;;;;;;;6.15;5.10;;;;;;;18.29;33.38;92911.81;5118177;28;20054;-52
2020/12/12 10:48:05;;;;;;;7.40;4.72;;;;;;;18.38;31.80;92899.00;5118116;28;20353;-57
2020/12/12 10:50:32;;;;;;;7.28;4.80;;;;;;;18.36;31.79;92901.25;5115560;28;20046;-51
2020/12/12 10:52:59;;;;;;;5.20;3.47;;;;;;;18.52;31.02;92897.56;5117389;28;20063;-75
2020/12/12 10:55:26;;;;;;;5.75;3.70;;;;;;;18.44;31.28;92897.50;5117783;28;20054;-58
2020/12/12 10:57:54;;;;;;;6.18;4.30;;;;;;;18.60;31.30;92899.13;5115097;28;20483;-50
2020/12/12 11:00:24;;;;;;;6.63;4.43;;;;;;;18.41;31.30;92897.50;5116786;28;20354;-46
2020/12/12 11:02:52;;;;;;;5.55;3.90;;;;;;;18.54;30.99;92900.59;5114584;28;20058;-47
2020/12/12 11:05:20;;;;;;;3.90;2.78;;;;;;;18.49;29.85;92883.94;5117435;28;20058;-58
2020/12/12 11:07:48;;;;;;;8.85;6.30;;;;;;;18.46;30.94;92894.50;5117560;28;20058;-60
2020/12/12 11:10:15;;;;;;;6.57;4.05;;;;;;;18.66;30.38;92897.66;5117457;28;20055;-56
2020/12/12 11:12:45;;;;;;;9.25;6.55;;;;;;;18.44;30.81;92909.97;5116585;28;20361;-54
2020/12/12 11:15:14;;;;;;;9.23;7.00;;;;;;;18.94;30.40;92902.31;5117209;28;20058;-52
2020/12/12 11:17:42;;;;;;;9.98;6.40;;;;;;;18.68;30.56;92895.38;5117277;28;20446;-45
2020/12/12 11:20:11;;;;;;;10.70;6.68;;;;;;;18.67;30.69;92899.94;5116924;28;20048;-52
2020/12/12 11:22:38;;;;;;;8.93;6.35;;;;;;;18.22;31.02;92898.53;5116639;28;20044;-55
2020/12/12 11:25:06;;;;;;;10.02;5.45;;;;;;;17.85;31.90;92903.94;5117355;28;20043;-54
2020/12/12 11:27:33;;;;;;;5.93;4.00;;;;;;;17.81;32.14;92901.28;5117144;28;20063;-54
2020/12/12 11:30:01;;;;;;;4.47;2.97;;;;;;;18.18;31.25;92900.38;5117118;28;20392;-57
2020/12/12 11:32:28;;;;;;;4.63;3.47;;;;;;;17.56;32.65;92897.63;5114507;28;20047;-68
2020/12/12 11:48:18;;;;;;;8.38;5.18;;;;;;;19.12;29.96;92887.22;5115334;28;20058;-55